• Join FlightAware (Why Join?)
  • Login
  • US Flag 
05:47PM EDT


 

Airport Tracker/Info


-or-


 

Live Flight TrackerFlight Track Log ✈ N717AN ✈ 29-Jul-2013 ✈ KJFK - SBGR / GRU

Flight Track Log - Related Links

Times and Time Zones

All times are in EDT time to prevent confusion due to time zone crossing. See the N717AN flight status page for this flight to view local times or setup timezone preferences in your user account.

Time Position Orientation Groundspeed Altitude Reporting Facility
EDT Latitude Longitude Course Direction KTS MPH feet Rate Location/Type
11:27PM 40.6310 -73.7780 360° North 92 106  Level FlightAware
11:28PM 40.6460 -73.8120 301° West 185 213 500 1,020 Climbing FlightAware
11:28PM 40.6480 -73.8190 291° West 187 215 800 2,460 Climbing FlightAware
11:28PM 40.6490 -73.8260 281° West 191 220 1,000 1,980 Climbing FlightAware
11:28PM 40.6390 -73.8530 244° Southwest 208 239 1,800 1,620 Climbing FlightAware
11:29PM 40.6300 -73.8650 225° Southwest 226 260 2,000 1,500 Climbing FlightAware
11:29PM 40.6190 -73.8790 224° Southwest 238 274 2,500 1,860 Climbing FlightAware
11:29PM 40.6160 -73.8810 207° Southwest 240 276 2,600 2,280 Climbing FlightAware
11:29PM 40.6050 -73.8850 195° South 250 288 3,000 2,400 Climbing FlightAware
11:30PM 40.5750 -73.8670 155° Southeast 261 300 4,100 2,280 Climbing FlightAware
11:30PM 40.5700 -73.8560 121° Southeast 265 305 4,400 1,380 Climbing FlightAware
11:30PM 40.5680 -73.8500 114° Southeast 269 310 4,400 960 Level FlightAware
11:30PM 40.5650 -73.8370 107° East 277 319 4,600 2,100 Climbing FlightAware
11:30PM 40.5618 -73.8218 105° East 279 321 5,000 2,040 Climbing FlightAware ADS-B
11:30PM 40.5580 -73.7929 100° East 291 335 5,500 2,160 Climbing FlightAware ADS-B
11:31PM 40.5546 -73.7624 98° East 298 343 6,200 2,460 Climbing FlightAware ADS-B
11:31PM 40.5504 -73.7285 99° East 301 346 7,000 2,340 Climbing FlightAware ADS-B
11:31PM 40.5490 -73.7212 104° East 304 350 7,100 2,220 Climbing FlightAware ADS-B
11:31PM 40.5472 -73.7141 108° East 306 352 7,300 2,280 Climbing FlightAware ADS-B
11:31PM 40.5422 -73.6990 114° Southeast 306 352 7,600 2,280 Climbing FlightAware ADS-B
11:31PM 40.5398 -73.6931 118° Southeast 305 351 7,800 3,000 Climbing FlightAware ADS-B
11:31PM 40.5352 -73.6826 120° Southeast 305 351 8,100 3,000 Climbing FlightAware ADS-B
11:32PM 40.5308 -73.6729 121° Southeast 303 349 8,400 2,760 Climbing FlightAware ADS-B
11:32PM 40.5248 -73.6599 121° Southeast 302 348 8,800 2,700 Climbing FlightAware ADS-B
11:32PM 40.5144 -73.6359 120° Southeast 302 348 9,500 1,860 Climbing FlightAware ADS-B
11:32PM 40.4924 -73.5868 120° Southeast 328 377 10,200 1,140 Climbing FlightAware ADS-B
11:33PM 40.4660 -73.5310 122° Southeast 361 415 10,700 1,200 Climbing FlightAware ADS-B
11:33PM 40.4408 -73.4791 123° Southeast 382 440 11,400 1,740 Climbing FlightAware ADS-B
11:34PM 40.4110 -73.4195 123° Southeast 396 456 12,400 2,280 Climbing FlightAware ADS-B
11:34PM 40.3812 -73.3580 122° Southeast 395 455 13,700 2,220 Climbing FlightAware ADS-B
11:35PM 40.3516 -73.2957 122° Southeast 405 466 14,700 2,100 Climbing FlightAware ADS-B
11:35PM 40.3191 -73.2301 123° Southeast 406 467 15,900 1,980 Climbing FlightAware ADS-B
11:36PM 40.2790 -73.1606 127° Southeast 418 481 16,900 1,920 Climbing FlightAware ADS-B
11:36PM 40.2436 -73.1003 128° Southeast 419 482 18,000 1,980 Climbing FlightAware ADS-B
11:37PM 40.1982 -73.0231 128° Southeast 427 491 19,200 1,860 Climbing FlightAware ADS-B
11:38PM 40.1471 -72.9364 128° Southeast 436 502 20,500 1,620 Climbing FlightAware ADS-B
11:38PM 40.1110 -72.8750 128° Southeast 441 507 21,200 1,560 Climbing FlightAware
11:39PM 40.0684 -72.8032 128° Southeast 438 504 22,200 1,680 Climbing FlightAware ADS-B
11:39PM 40.0230 -72.7270 128° Southeast 450 518 23,200 1,500 Climbing FlightAware
11:40PM 39.9750 -72.6460 128° Southeast 459 528 24,100 1,500 Climbing FlightAware
11:41PM 39.9290 -72.5690 128° Southeast 464 534 25,000 1,380 Climbing FlightAware
11:41PM 39.8822 -72.5018 132° Southeast 462 532 25,700 1,260 Climbing FlightAware ADS-B
11:41PM 39.8645 -72.4855 145° Southeast 458 527 25,900 900 Climbing FlightAware ADS-B
11:42PM 39.8470 -72.4728 151° Southeast 455 524 26,000 1,140 Climbing FlightAware ADS-B
11:42PM 39.8136 -72.4565 159° South 450 518 26,400 1,080 Climbing FlightAware ADS-B
11:43PM 39.7170 -72.4473 176° South 448 516 27,200 1,020 Climbing FlightAware ADS-B
11:43PM 39.7093 -72.4471 179° South 450 518 27,300 1,320 Climbing FlightAware ADS-B
11:43PM 39.6429 -72.4467 180° South 453 521 28,000 1,200 Climbing FlightAware ADS-B
11:44PM 39.5789 -72.4462 180° South 456 525 28,600 720 Climbing FlightAware ADS-B
11:45PM 39.4697 -72.4446 179° South 467 537 29,000 360 Climbing FlightAware ADS-B
11:45PM 39.4070 -72.4430 179° South 465 535 29,100 360 Climbing FlightAware
11:45PM 39.3770 -72.4429 180° South 473 544 29,300 1,320 Climbing FlightAware ADS-B
11:46PM 39.3037 -72.4396 178° South 472 543 30,100 1,380 Climbing FlightAware ADS-B
11:46PM 39.2376 -72.4362 178° South 468 539 30,800 840 Climbing FlightAware ADS-B
11:47PM 39.1729 -72.4332 178° South 463 533 31,000 180 Climbing FlightAware ADS-B
11:47PM 39.1070 -72.4304 178° South 462 532 31,000  Level FlightAware ADS-B
11:48PM 39.0430 -72.4277 178° South 461 531 31,000  Level FlightAware ADS-B
11:48PM 38.9756 -72.4250 178° South 462 532 31,000  Level FlightAware ADS-B
11:49PM 38.9112 -72.4223 178° South 463 533 31,000  Level FlightAware ADS-B
11:49PM 38.8467 -72.4195 178° South 464 534 31,000  Level FlightAware ADS-B
11:50PM 38.7821 -72.4167 178° South 464 534 31,000  Level FlightAware ADS-B
11:50PM 38.7168 -72.4140 178° South 462 532 31,000  Level FlightAware ADS-B
11:51PM 38.6529 -72.4113 178° South 460 529 31,000  Level FlightAware ADS-B
11:51PM 38.5761 -72.4081 178° South 459 528 31,000  Level FlightAware ADS-B
11:52PM 38.5101 -72.4052 178° South 459 528 31,000  Level FlightAware ADS-B
11:53PM 38.4460 -72.4026 178° South 459 528 31,000  Level FlightAware ADS-B
11:53PM 38.3780 -72.3997 178° South 459 528 31,000  Level FlightAware ADS-B
11:54PM 38.3075 -72.3967 178° South 459 528 31,000  Level FlightAware ADS-B
11:54PM 38.2726 -72.3948 178° South 461 531 31,000  Level FlightAware ADS-B
11:54PM 38.2516 -72.3914 173° South 464 534 31,000  Level FlightAware ADS-B
11:54PM 38.2328 -72.3860 167° South 468 539 31,000  Level FlightAware ADS-B
11:55PM 38.1020 -72.2850 149° Southeast 477 549 31,000  Level FlightAware
11:56PM 38.0450 -72.2360 146° Southeast 477 549 31,000  Level FlightAware
11:57PM 37.9890 -72.1880 146° Southeast 477 549 31,000  Level FlightAware
11:57PM 37.9330 -72.1400 146° Southeast 477 549 31,000  Level FlightAware
11:58PM 37.8750 -72.0910 146° Southeast 477 549 31,000  Level FlightAware
11:58PM 37.8190 -72.0430 146° Southeast 477 549 31,000  Level FlightAware
11:59PM 37.7630 -71.9950 146° Southeast 477 549 31,000  Level FlightAware
12:00AM 37.7070 -71.9470 146° Southeast 477 549 31,000  Level FlightAware
12:00AM 37.6510 -71.9000 146° Southeast 477 549 31,000  Level FlightAware
12:01AM 37.5980 -71.8550 146° Southeast 477 549 31,000  Level FlightAware
12:01AM 37.5460 -71.8100 146° Southeast 477 549 31,000  Level FlightAware
12:02AM 37.4900 -71.7620 146° Southeast 477 549 31,000  Level FlightAware
12:03AM 37.4310 -71.7120 146° Southeast 477 549 31,000  Level FlightAware
12:03AM 37.3750 -71.6640 146° Southeast 477 549 31,000  Level FlightAware
12:04AM 37.3000 -71.3333 155° Southeast 491 565 31,000  Level New York Oceanic (ODAPS)
12:04AM 37.3190 -71.6170 146° Southeast 477 549 31,000  Level FlightAware
12:04AM 37.2833 -71.3333 155° Southeast 490 564 31,000  Level New York Oceanic (ODAPS)
12:04AM 37.2630 -71.5690 146° Southeast 477 549 31,000 -120 Level FlightAware
12:05AM 37.0583 -71.3078 155° Southeast 484 557 30,900 -60 Descending New York Center
12:06AM 36.9522 -71.2317 150° Southeast 484 557 30,900  Level New York Center
12:08AM 36.8167 -71.0500 155° Southeast 499 574 31,000  Climbing New York Oceanic (ODAPS)
12:14AM 36.0294 -70.5985 155° Southeast 499 574 31,000  Level FlightAware Transoceanic
12:15AM 35.8981 -70.5241 155° Southeast 499 574 31,000  Level FlightAware Transoceanic
12:16AM 35.7667 -70.4500 168° South 499 574 31,000  Level FlightAware Transoceanic
12:16AM 35.7667 -70.4500 168° South 485 558 31,000  Level New York Oceanic (ODAPS)
12:17AM 35.6353 -70.4152 168° South 499 574 31,000  Level FlightAware Transoceanic
12:18AM 35.5039 -70.3806 168° South 499 574 31,000  Level FlightAware Transoceanic
12:19AM 35.3725 -70.3461 168° South 499 574 31,000  Level FlightAware Transoceanic
12:20AM 35.2411 -70.3117 168° South 499 574 31,000  Level FlightAware Transoceanic
12:21AM 35.1097 -70.2773 168° South 499 574 31,000  Level FlightAware Transoceanic
12:22AM 34.9783 -70.2431 168° South 499 574 31,000  Level FlightAware Transoceanic
12:22AM 35.0500 -70.2667 168° South 490 564 31,000  Level New York Oceanic (ODAPS)
12:23AM 34.9564 -70.2375 168° South 485 558 31,000  Level FlightAware Transoceanic
12:24AM 34.8213 -70.2025 168° South 485 558 31,000  Level FlightAware Transoceanic
12:25AM 34.6862 -70.1675 168° South 485 558 31,000  Level FlightAware Transoceanic
12:26AM 34.5511 -70.1328 168° South 485 558 31,000  Level FlightAware Transoceanic
12:27AM 34.4160 -70.0981 168° South 485 558 31,000  Level FlightAware Transoceanic
12:28AM 34.2475 -70.0589 168° South 490 564 31,000  Level FlightAware Transoceanic
12:29AM 34.1137 -70.0246 168° South 490 564 31,000  Level FlightAware Transoceanic
12:30AM 33.9799 -69.9905 168° South 490 564 31,000  Level FlightAware Transoceanic
12:31AM 33.8461 -69.9565 168° South 490 564 31,000  Level FlightAware Transoceanic
12:32AM 33.7122 -69.9226 168° South 490 564 31,000  Level FlightAware Transoceanic
12:33AM 33.5784 -69.8887 168° South 490 564 31,000  Level FlightAware Transoceanic
12:34AM 33.4446 -69.8550 168° South 490 564 31,000  Level FlightAware Transoceanic
12:34AM 33.3000 -69.8167 168° South 495 570 31,000  Level New York Oceanic (ODAPS)
12:35AM 33.3107 -69.8214 168° South 490 564 31,000  Level FlightAware Transoceanic
12:35AM 33.1833 -69.7833 168° South 499 574 31,000  Level New York Oceanic (ODAPS)
12:36AM 33.1769 -69.7879 168° South 490 564 31,000  Level FlightAware Transoceanic
12:37AM 33.0430 -69.7545 168° South 490 564 31,000  Level FlightAware Transoceanic
12:37AM 32.9333 -69.7167 168° South 497 572 31,000  Level New York Oceanic (ODAPS)
12:38AM 32.9091 -69.7212 168° South 490 564 31,000  Level FlightAware Transoceanic
12:39AM 32.7752 -69.6880 168° South 490 564 31,000  Level FlightAware Transoceanic
12:39AM 32.9333 -69.7167 168° South 497 572 31,000  Level New York Oceanic (ODAPS)
12:40AM 32.6413 -69.6549 168° South 490 564 31,000  Level FlightAware Transoceanic
12:41AM 32.5003 -69.6188 168° South 495 570 31,000  Level FlightAware Transoceanic
12:42AM 32.3274 -69.5739 168° South 499 574 31,000  Level FlightAware Transoceanic
12:43AM 32.2558 -69.5532 169° South 497 572 31,000  Level FlightAware Transoceanic
12:44AM 32.1202 -69.5208 169° South 497 572 31,000  Level FlightAware Transoceanic
12:45AM 31.9847 -69.4884 169° South 497 572 31,000  Level FlightAware Transoceanic
12:46AM 31.8491 -69.4562 169° South 497 572 31,000  Level FlightAware Transoceanic
12:47AM 31.7136 -69.4241 169° South 497 572 31,000  Level FlightAware Transoceanic
12:48AM 31.5780 -69.3921 169° South 497 572 31,000  Level FlightAware Transoceanic
12:49AM 31.4424 -69.3602 169° South 497 572 31,000  Level FlightAware Transoceanic
12:49AM 31.4000 -69.3500 169° South 552 635 31,000  Level New York Oceanic (ODAPS)
12:50AM 31.3068 -69.3283 169° South 497 572 31,000  Level FlightAware Transoceanic
12:51AM 31.1712 -69.2966 169° South 497 572 31,000  Level FlightAware Transoceanic
12:52AM 31.0356 -69.2649 169° South 497 572 31,000  Level FlightAware Transoceanic
12:53AM 30.9000 -69.2333 187° South 497 572 31,000  Level FlightAware Transoceanic
12:53AM 30.9000 -69.2333 187° South 496 571 31,000  Level New York Oceanic (ODAPS)
12:54AM 30.7596 -69.2539 187° South 497 572 31,000  Level FlightAware Transoceanic
12:55AM 30.6257 -69.2734 187° South 552 635 31,000  Level FlightAware Transoceanic
12:56AM 30.4885 -69.2934 187° South 552 635 31,000  Level FlightAware Transoceanic
12:57AM 30.3514 -69.3133 187° South 552 635 31,000  Level FlightAware Transoceanic
12:58AM 30.2142 -69.3331 187° South 552 635 31,000  Level FlightAware Transoceanic
12:59AM 30.0770 -69.3529 187° South 552 635 31,000  Level FlightAware Transoceanic
01:00AM 29.9399 -69.3726 187° South 496 571 31,000  Level FlightAware Transoceanic
01:01AM 29.8027 -69.3923 187° South 496 571 31,000  Level FlightAware Transoceanic
01:01AM 30.0000 -69.3500 187° South 490 564 31,000  Level New York Oceanic (ODAPS)
01:02AM 29.6655 -69.4119 187° South 496 571 31,000  Level FlightAware Transoceanic
01:03AM 29.5284 -69.4315 187° South 496 571 31,000  Level FlightAware Transoceanic
01:03AM 29.5667 -69.4167 187° South 489 563 31,000  Level New York Oceanic (ODAPS)
01:04AM 29.3912 -69.4510 187° South 496 571 31,000  Level FlightAware Transoceanic
01:05AM 29.2540 -69.4705 187° South 496 571 31,000  Level FlightAware Transoceanic
01:06AM 29.1168 -69.4899 187° South 496 571 31,000  Level FlightAware Transoceanic
01:07AM 28.9796 -69.5092 187° South 496 571 31,000  Level FlightAware Transoceanic
01:08AM 28.9192 -69.5069 187° South 490 564 31,000  Level FlightAware Transoceanic
01:09AM 28.7610 -69.5323 187° South 489 563 31,000  Level FlightAware Transoceanic
01:10AM 28.6267 -69.5514 187° South 489 563 31,000  Level FlightAware Transoceanic
01:11AM 28.4924 -69.5705 187° South 489 563 31,000  Level FlightAware Transoceanic
01:12AM 28.3581 -69.5895 187° South 489 563 31,000  Level FlightAware Transoceanic
01:13AM 28.2238 -69.6085 187° South 489 563 31,000  Level FlightAware Transoceanic
01:14AM 28.0895 -69.6274 187° South 489 563 31,000  Level FlightAware Transoceanic
01:15AM 27.9552 -69.6462 187° South 489 563 31,000  Level FlightAware Transoceanic
01:16AM 27.8209 -69.6650 187° South 489 563 31,000  Level FlightAware Transoceanic
01:17AM 27.6866 -69.6838 187° South 489 563 31,000  Level FlightAware Transoceanic
01:17AM 27.7000 -69.6833 187° South 486 559 31,000  Level New York Oceanic (ODAPS)
01:18AM 27.5523 -69.7025 187° South 489 563 31,000  Level FlightAware Transoceanic
01:19AM 27.4180 -69.7212 187° South 489 563 31,000  Level FlightAware Transoceanic
01:20AM 27.2837 -69.7399 187° South 489 563 31,000  Level FlightAware Transoceanic
01:21AM 27.1494 -69.7584 187° South 489 563 31,000  Level FlightAware Transoceanic
01:22AM 27.0151 -69.7770 187° South 489 563 31,000  Level FlightAware Transoceanic
01:23AM 26.8901 -69.7952 187° South 486 559 31,000  Level FlightAware Transoceanic
01:24AM 26.7551 -69.8136 187° South 486 559 31,000  Level FlightAware Transoceanic
01:25AM 26.6201 -69.8321 187° South 486 559 31,000  Level FlightAware Transoceanic
01:26AM 26.4851 -69.8505 187° South 486 559 31,000  Level FlightAware Transoceanic
01:27AM 26.3501 -69.8688 187° South 486 559 31,000  Level FlightAware Transoceanic
01:28AM 26.2151 -69.8871 187° South 486 559 31,000  Level FlightAware Transoceanic
01:29AM 26.0801 -69.9054 187° South 486 559 31,000  Level FlightAware Transoceanic
01:30AM 25.9451 -69.9236 187° South 486 559 31,000  Level FlightAware Transoceanic
01:31AM 25.8101 -69.9418 187° South 486 559 31,000  Level FlightAware Transoceanic
01:31AM 25.8333 -69.9333 187° South 487 560 31,000  Level New York Oceanic (ODAPS)
01:32AM 25.6751 -69.9599 187° South 486 559 31,000  Level FlightAware Transoceanic
01:33AM 25.5401 -69.9780 187° South 486 559 31,000  Level FlightAware Transoceanic
01:34AM 25.4051 -69.9961 187° South 486 559 31,000  Level FlightAware Transoceanic
01:35AM 25.2700 -70.0141 187° South 486 559 31,000  Level FlightAware Transoceanic
01:36AM 25.1350 -70.0321 187° South 486 559 31,000  Level FlightAware Transoceanic
01:36AM 25.1608 -70.0339 178° South 487 560 31,000  Level Miami Center
01:37AM 25.0000 -70.0500 178° South 487 560 31,000  Level FlightAware Transoceanic
01:37AM 25.0072 -70.0492 185° South 498 573 31,000  Level Miami Center
01:38AM 24.8639 -70.0444 178° South 487 560 31,000  Level FlightAware Transoceanic
01:38AM 24.8819 -70.0494 180° South 498 573 31,000  Level Miami Center
01:39AM 24.7278 -70.0388 178° South 487 560 31,000  Level FlightAware Transoceanic
01:39AM 24.7461 -70.0433 178° South 498 573 31,000  Level Miami Center
01:40AM 24.5917 -70.0333 178° South 487 560 31,000  Level FlightAware Transoceanic
01:40AM 24.6081 -70.0372 178° South 498 573 31,000  Level Miami Center
01:41AM 24.4556 -70.0277 178° South 487 560 31,000  Level FlightAware Transoceanic
01:41AM 24.4722 -70.0308 178° South 498 573 31,000  Level Miami Center
01:42AM 24.3344 -70.0294 179° South 498 573 31,000  Level Miami Center
01:43AM 24.1939 -70.0144 174° South 503 579 31,000  Level Miami Center
01:44AM 24.0558 -70.0061 177° South 498 573 31,000  Level Miami Center
01:45AM 23.9156 -69.9956 176° South 498 573 31,000  Level Miami Center
01:46AM 23.7769 -69.9781 173° South 504 580 31,000  Level Miami Center
01:47AM 23.6433 -69.9742 178° South 504 580 31,000  Level Miami Center
01:48AM 23.5050 -69.9611 175° South 504 580 31,000  Level Miami Center
01:49AM 23.3669 -69.9528 177° South 499 574 31,000  Level Miami Center
01:50AM 23.2267 -69.9400 175° South 499 574 31,000  Level Miami Center
01:51AM 23.0908 -69.9339 178° South 499 574 31,000  Level Miami Center
01:52AM 22.9544 -69.9208 175° South 499 574 31,000  Level Miami Center
01:53AM 22.8164 -69.9103 176° South 499 574 31,000  Level Miami Center
01:54AM 22.6825 -69.9017 177° South 499 574 31,000  Level Miami Center
01:55AM 22.5481 -69.9247 189° South 499 574 31,000  Level Miami Center
01:56AM 22.4236 -69.9828 203° Southwest 477 549 31,000  Level Miami Center
01:57AM 22.2969 -70.0433 204° Southwest 493 567 31,000  Level Miami Center
01:58AM 22.1747 -70.1056 205° Southwest 498 573 31,000  Level Miami Center
01:59AM 22.0378 -70.1686 203° Southwest 493 567 31,000  Level Miami Center
02:00AM 21.9131 -70.2306 205° Southwest 493 567 31,000  Level Miami Center
02:01AM 21.7886 -70.2903 204° Southwest 493 567 31,000  Level Miami Center
02:02AM 21.6642 -70.3544 206° Southwest 493 567 31,000  Level Miami Center
02:03AM 21.5436 -70.4161 205° Southwest 493 567 31,000  Level Miami Center
02:04AM 21.4097 -70.4492 193° South 487 560 31,000  Level Miami Center
02:05AM 21.2783 -70.4044 162° South 470 541 31,000  Level Miami Center
02:06AM 21.1508 -70.3461 157° South 475 547 31,000  Level Miami Center
02:07AM 21.0181 -70.3125 167° South 480 552 31,000  Level Miami Center
02:08AM 20.8853 -70.2744 165° South 485 558 31,000  Level Miami Center
02:14AM 20.0700 -70.0760 165° South 506 582 31,000  Level FlightAware
02:14AM 20.0010 -70.0590 167° South 507 583 31,000  Level FlightAware
02:15AM 19.9310 -70.0420 167° South 507 583 31,000  Level FlightAware
02:16AM 19.8590 -70.0250 167° South 507 583 31,000  Level FlightAware
02:16AM 19.7890 -70.0070 166° South 507 583 31,000  Level FlightAware
02:17AM 19.6510 -69.9750 168° South 503 579 31,000  Level FlightAware
02:17AM 19.5850 -69.9590 167° South 501 577 31,000  Level FlightAware
02:18AM 19.4920 -69.9370 167° South 503 579 31,000  Level FlightAware
02:19AM 19.4070 -69.9160 167° South 502 578 31,000  Level FlightAware
02:19AM 19.3340 -69.8990 168° South 501 577 31,000  Level FlightAware
02:20AM 19.2530 -69.8800 168° South 501 577 31,000  Level FlightAware
02:20AM 19.1750 -69.8610 167° South 500 575 31,000  Level FlightAware
02:21AM 19.0940 -69.8410 167° South 500 575 31,000  Level FlightAware
02:21AM 19.0120 -69.8220 168° South 499 574 31,000  Level FlightAware
02:22AM 18.9290 -69.8020 167° South 500 575 31,000  Level FlightAware
02:23AM 18.8580 -69.7850 167° South 501 577 31,000  Level FlightAware
02:23AM 18.7950 -69.7700 167° South 502 578 31,000  Level FlightAware
02:24AM 18.7120 -69.7500 167° South 503 579 31,000  Level FlightAware
02:24AM 18.6310 -69.7310 167° South 501 577 31,000  Level FlightAware
02:25AM 18.5470 -69.7110 167° South 501 577 31,000  Level FlightAware
02:25AM 18.4770 -69.6940 167° South 501 577 31,000  Level FlightAware
02:26AM 18.3940 -69.6750 168° South 500 575 31,000  Level FlightAware
02:27AM 18.3140 -69.6560 167° South 500 575 31,000  Level FlightAware
02:27AM 18.2310 -69.6360 167° South 499 574 31,000  Level FlightAware
02:28AM 18.1590 -69.6190 167° South 499 574 31,000  Level FlightAware
02:28AM 18.0790 -69.6000 167° South 499 574 31,000  Level FlightAware
02:29AM 18.0010 -69.5820 168° South 499 574 31,000  Level FlightAware
02:30AM 17.9140 -69.5610 167° South 501 577 31,000  Level FlightAware
02:30AM 17.8330 -69.5420 167° South 500 575 31,000  Level FlightAware
02:31AM 17.7630 -69.5260 168° South 499 574 31,000  Level FlightAware
02:31AM 17.6810 -69.5060 167° South 498 573 31,000  Level FlightAware
02:32AM 17.6090 -69.4900 168° South 498 573 31,000  Level FlightAware
02:32AM 17.5280 -69.4710 167° South 500 575 31,000  Level FlightAware
02:33AM 17.4440 -69.4510 167° South 499 574 31,000  Level FlightAware
02:34AM 17.3640 -69.4320 167° South 499 574 31,000  Level FlightAware
02:34AM 17.2910 -69.4150 167° South 499 574 31,000  Level FlightAware
02:35AM 17.2110 -69.3960 167° South 499 574 31,000  Level FlightAware
02:35AM 17.1290 -69.3770 168° South 499 574 31,000  Level FlightAware
02:36AM 17.0510 -69.3590 168° South 496 571 31,000  Level FlightAware
02:37AM 16.9680 -69.3400 168° South 496 571 31,000  Level FlightAware
02:37AM 16.8970 -69.3230 167° South 495 570 31,000  Level FlightAware
02:38AM 16.8030 -69.3010 167° South 494 568 31,000  Level FlightAware
02:38AM 16.7350 -69.2840 167° South 494 568 31,000  Level FlightAware
02:39AM 16.6670 -69.2680 167° South 494 568 31,000  Level FlightAware
02:40AM 16.5980 -69.2510 167° South 494 568 31,000  Level FlightAware
02:40AM 16.5340 -69.2360 167° South 494 568 31,000  Level FlightAware
02:41AM 16.4620 -69.2190 167° South 494 568 31,000  Level FlightAware
02:41AM 16.3920 -69.2020 167° South 494 568 31,000  Level FlightAware
02:42AM 16.3280 -69.1860 167° South 494 568 31,000  Level FlightAware
02:43AM 16.2560 -69.1690 167° South 494 568 31,000  Level FlightAware
02:43AM 16.1880 -69.1530 167° South 494 568 31,000  Level FlightAware
02:44AM 16.1200 -69.1360 166° South 494 568 31,000  Level FlightAware
02:44AM 15.9150 -69.0950 169° South 491 565 31,000  Level FlightAware
02:45AM 15.8450 -69.0780 167° South 493 567 31,000  Level FlightAware
02:46AM 15.7600 -69.0580 167° South 494 568 31,000  Level FlightAware
02:46AM 15.6950 -69.0430 167° South 493 567 31,000  Level FlightAware
02:47AM 15.6010 -69.0210 167° South 494 568 31,000  Level FlightAware
02:47AM 15.5160 -69.0010 167° South 492 566 31,000  Level FlightAware
02:48AM 15.4520 -68.9860 167° South 492 566 31,000  Level FlightAware
02:48AM 15.3670 -68.9660 167° South 491 565 31,000  Level FlightAware
02:49AM 15.2870 -68.9470 167° South 491 565 31,000  Level FlightAware
02:50AM 15.2110 -68.9290 167° South 482 555 31,000  Level FlightAware
02:50AM 15.1320 -68.9110 168° South 481 554 31,000  Level FlightAware
02:51AM 15.0560 -68.8930 167° South 480 552 31,000  Level FlightAware
02:51AM 14.9770 -68.8740 167° South 480 552 31,000  Level FlightAware
02:52AM 14.9010 -68.8560 167° South 481 554 31,000  Level FlightAware
02:53AM 14.8220 -68.8380 168° South 481 554 31,000  Level FlightAware
02:53AM 14.7440 -68.8200 167° South 481 554 31,000  Level FlightAware
02:54AM 14.6660 -68.8020 167° South 481 554 31,000  Level FlightAware
02:54AM 14.5890 -68.7840 167° South 482 555 31,000  Level FlightAware
02:55AM 14.5110 -68.7650 167° South 491 565 31,000  Level FlightAware
02:56AM 14.4330 -68.7470 167° South 492 566 31,000  Level FlightAware
02:56AM 14.3540 -68.7290 168° South 494 568 31,000  Level FlightAware
02:57AM 14.2770 -68.7110 167° South 494 568 31,000  Level FlightAware
02:57AM 14.1980 -68.6930 168° South 495 570 31,000  Level FlightAware
02:58AM 14.1200 -68.6750 167° South 495 570 31,000  Level FlightAware
02:58AM 14.0400 -68.6560 167° South 496 571 31,000  Level FlightAware
02:59AM 13.9610 -68.6380 168° South 494 568 31,000  Level FlightAware
02:59AM 13.9060 -68.6250 167° South 494 568 31,000  Level FlightAware
03:00AM 13.8450 -68.6110 167° South 493 567 31,000  Level FlightAware
03:01AM 13.7230 -68.5830 167° South 493 567 31,000  Level FlightAware
03:01AM 13.6440 -68.5640 167° South 494 568 31,000  Level FlightAware
03:02AM 13.6000 -68.5540 168° South 494 568 31,000  Level FlightAware
03:02AM 13.4990 -68.5310 168° South 495 570 31,000  Level FlightAware
03:03AM 13.4090 -68.5100 167° South 497 572 31,000  Level FlightAware
03:04AM 13.3290 -68.4920 168° South 498 573 31,000  Level FlightAware
03:04AM 13.2400 -68.4710 167° South 492 566 31,000  Level FlightAware
03:05AM 13.1590 -68.4530 168° South 493 567 31,000  Level FlightAware
03:06AM 13.0810 -68.4350 167° South 492 566 31,000  Level FlightAware
03:06AM 13.0000 -68.4160 167° South 493 567 31,000  Level FlightAware
03:07AM 12.9230 -68.3980 167° South 495 570 31,000  Level FlightAware
03:07AM 12.8410 -68.3790 167° South 496 571 31,000  Level FlightAware
03:08AM 12.7630 -68.3620 168° South 496 571 31,000  Level FlightAware
03:08AM 12.6830 -68.3430 167° South 496 571 31,000  Level FlightAware
03:09AM 12.6020 -68.3250 168° South 497 572 31,000  Level FlightAware
03:10AM 12.5210 -68.3060 167° South 497 572 31,000  Level FlightAware
03:10AM 12.4430 -68.2880 167° South 496 571 31,000  Level FlightAware
03:11AM 12.3620 -68.2700 168° South 495 570 31,000  Level FlightAware
03:11AM 12.2940 -68.2540 167° South 493 567 31,000  Level FlightAware
03:12AM 12.2030 -68.2330 167° South 492 566 31,000  Level FlightAware
03:13AM 12.1230 -68.2150 168° South 493 567 31,000  Level FlightAware
03:13AM 12.0530 -68.1990 167° South 493 567 31,000  Level FlightAware
03:14AM 11.9520 -68.1760 167° South 492 566 31,000  Level FlightAware
03:14AM 11.8720 -68.1580 168° South 493 567 31,000  Level FlightAware
03:15AM 11.7930 -68.1400 167° South 492 566 31,000  Level FlightAware
03:16AM 11.7130 -68.1220 168° South 492 566 31,000  Level FlightAware
03:16AM 11.6350 -68.1040 167° South 491 565 31,000  Level FlightAware
03:17AM 11.5540 -68.0860 168° South 491 565 31,000  Level FlightAware
03:17AM 11.4770 -68.0680 167° South 492 566 31,000  Level FlightAware
03:18AM 11.3960 -68.0500 168° South 492 566 31,000  Level FlightAware
03:18AM 11.3190 -68.0320 167° South 491 565 31,000  Level FlightAware
03:19AM 11.2380 -68.0130 167° South 492 566 31,000  Level FlightAware
03:20AM 11.1580 -67.9950 168° South 492 566 31,000  Level FlightAware
03:20AM 11.0770 -67.9760 167° South 491 565 31,000  Level FlightAware
03:21AM 10.9970 -67.9580 168° South 497 572 31,000  Level FlightAware
03:21AM 10.9200 -67.9410 168° South 490 564 31,000  Level FlightAware
03:22AM 10.8390 -67.9230 168° South 491 565 31,000  Level FlightAware
03:23AM 10.7610 -67.9060 168° South 491 565 31,000  Level FlightAware
03:23AM 10.6800 -67.8880 168° South 491 565 31,000  Level FlightAware
03:24AM 10.6030 -67.8710 168° South 491 565 31,000  Level FlightAware
03:24AM 10.5110 -67.8510 168° South 491 565 31,000  Level FlightAware
03:25AM 10.4300 -67.8330 168° South 490 564 31,000  Level FlightAware
03:26AM 10.3500 -67.8150 168° South 491 565 31,000  Level FlightAware
03:26AM 10.2610 -67.7950 168° South 497 572 31,000  Level FlightAware
03:27AM 10.1970 -67.7810 168° South 496 571 31,000  Level FlightAware
03:28AM 10.0900 -67.7570 168° South 496 571 31,000  Level FlightAware
03:28AM 10.0150 -67.7400 167° South 496 571 31,000  Level FlightAware
03:29AM 9.9340 -67.7220 168° South 497 572 31,000  Level FlightAware
03:30AM 9.8240 -67.6980 168° South 497 572 31,000  Level FlightAware
03:30AM 9.7500 -67.6810 167° South 497 572 31,000  Level FlightAware
03:31AM 9.6820 -67.6650 167° South 497 572 31,000  Level FlightAware
03:31AM 9.6130 -67.6490 167° South 497 572 31,000  Level FlightAware
03:32AM 9.5430 -67.6320 167° South 497 572 31,000  Level FlightAware
03:33AM 9.4740 -67.6160 167° South 497 572 31,000  Level FlightAware
03:33AM 9.4040 -67.5990 167° South 497 572 31,000  Level FlightAware
03:34AM 9.3350 -67.5830 167° South 497 572 31,000  Level FlightAware
03:34AM 9.2670 -67.5670 167° South 497 572 31,000  Level FlightAware
03:35AM 9.1960 -67.5510 167° South 497 572 31,000  Level FlightAware
03:36AM 9.1280 -67.5350 167° South 497 572 31,000  Level FlightAware
03:36AM 9.0590 -67.5190 167° South 497 572 31,000  Level FlightAware
03:37AM 8.9910 -67.5030 167° South 497 572 31,000  Level FlightAware
03:37AM 8.9220 -67.4870 167° South 497 572 31,000  Level FlightAware
03:38AM 8.8530 -67.4710 167° South 497 572 31,000  Level FlightAware
03:39AM 8.7850 -67.4550 167° South 497 572 31,000  Level FlightAware
03:39AM 8.7160 -67.4390 167° South 497 572 31,000  Level FlightAware
03:42AM 8.4612 -67.2773 148° Southeast  Level Estimated
03:43AM 8.3520 -67.2080 148° Southeast  Level Estimated
03:44AM 8.2428 -67.1388 148° Southeast  Level Estimated
03:45AM 8.1335 -67.0696 148° Southeast  Level Estimated
03:46AM 8.0243 -67.0005 148° Southeast  Level Estimated
03:47AM 7.9150 -66.9314 148° Southeast  Level Estimated
03:48AM 7.8058 -66.8624 148° Southeast  Level Estimated
03:49AM 7.6965 -66.7933 148° Southeast  Level Estimated
03:50AM 7.5872 -66.7243 148° Southeast  Level Estimated
03:51AM 7.4779 -66.6554 148° Southeast  Level Estimated
03:52AM 7.3686 -66.5865 148° Southeast  Level Estimated
03:53AM 7.2593 -66.5176 148° Southeast  Level Estimated
03:54AM 7.1499 -66.4487 148° Southeast  Level Estimated
03:55AM 7.0406 -66.3799 148° Southeast  Level Estimated
03:56AM 6.9318 -66.3115 148° Southeast  Level Estimated
03:57AM 6.8230 -66.2431 148° Southeast  Level Estimated
03:58AM 6.7142 -66.1748 148° Southeast  Level Estimated
03:59AM 6.6054 -66.1065 148° Southeast  Level Estimated
04:00AM 6.4966 -66.0382 148° Southeast  Level Estimated
04:01AM 6.3878 -65.9699 148° Southeast  Level Estimated
04:02AM 6.2790 -65.9017 148° Southeast  Level Estimated
04:03AM 6.1702 -65.8335 148° Southeast  Level Estimated
04:04AM 6.0613 -65.7653 148° Southeast  Level Estimated
04:05AM 5.9525 -65.6972 148° Southeast  Level Estimated
04:06AM 5.8436 -65.6290 148° Southeast  Level Estimated
04:07AM 5.7347 -65.5609 148° Southeast  Level Estimated
04:08AM 5.6259 -65.4929 148° Southeast  Level Estimated
04:09AM 5.5170 -65.4248 148° Southeast  Level Estimated
04:10AM 5.4081 -65.3568 148° Southeast  Level Estimated
04:11AM 5.2992 -65.2888 148° Southeast  Level Estimated
04:12AM 5.1903 -65.2208 148° Southeast  Level Estimated
04:13AM 5.0814 -65.1529 148° Southeast  Level Estimated
04:14AM 4.9725 -65.0850 148° Southeast  Level Estimated
04:15AM 4.8635 -65.0171 148° Southeast  Level Estimated
04:16AM 4.7546 -64.9492 148° Southeast  Level Estimated
04:17AM 4.6457 -64.8813 148° Southeast  Level Estimated
04:18AM 4.5367 -64.8135 148° Southeast  Level Estimated
04:19AM 4.4278 -64.7457 148° Southeast  Level Estimated
04:20AM 4.3188 -64.6779 148° Southeast  Level Estimated
04:21AM 4.2098 -64.6101 148° Southeast  Level Estimated
04:22AM 4.1009 -64.5423 148° Southeast  Level Estimated
04:23AM 3.9919 -64.4746 148° Southeast  Level Estimated
04:24AM 3.8829 -64.4069 148° Southeast  Level Estimated
04:25AM 3.7739 -64.3392 148° Southeast  Level Estimated
04:26AM 3.6649 -64.2715 148° Southeast  Level Estimated
04:27AM 3.5559 -64.2038 148° Southeast  Level Estimated
04:28AM 3.4469 -64.1362 148° Southeast  Level Estimated
04:29AM 3.3379 -64.0685 148° Southeast  Level Estimated
04:30AM 3.2289 -64.0009 148° Southeast  Level Estimated
04:31AM 3.1199 -63.9333 148° Southeast  Level Estimated
04:32AM 3.0109 -63.8657 148° Southeast  Level Estimated
04:33AM 2.9019 -63.7981 148° Southeast  Level Estimated
04:34AM 2.7928 -63.7305 148° Southeast  Level Estimated
04:35AM 2.6838 -63.6630 148° Southeast  Level Estimated
04:36AM 2.5748 -63.5955 148° Southeast  Level Estimated
04:37AM 2.4657 -63.5279 148° Southeast  Level Estimated
04:38AM 2.3567 -63.4604 148° Southeast  Level Estimated
04:39AM 2.2476 -63.3929 148° Southeast  Level Estimated
04:40AM 2.1386 -63.3254 148° Southeast  Level Estimated
04:41AM 2.0295 -63.2579 148° Southeast  Level Estimated
04:42AM 1.9205 -63.1904 148° Southeast  Level Estimated
04:43AM 1.8114 -63.1230 148° Southeast  Level Estimated
04:44AM 1.7024 -63.0555 148° Southeast  Level Estimated
04:45AM 1.5933 -62.9880 148° Southeast  Level Estimated
04:46AM 1.4842 -62.9206 148° Southeast  Level Estimated
04:47AM 1.3751 -62.8531 148° Southeast  Level Estimated
04:48AM 1.2661 -62.7857 148° Southeast  Level Estimated
04:49AM 1.1570 -62.7183 148° Southeast  Level Estimated
04:50AM 1.0479 -62.6508 148° Southeast  Level Estimated
04:51AM 0.9389 -62.5834 148° Southeast  Level Estimated
04:52AM 0.8298 -62.5160 148° Southeast  Level Estimated
04:53AM 0.7207 -62.4486 148° Southeast  Level Estimated
04:54AM 0.6116 -62.3812 148° Southeast  Level Estimated
04:55AM 0.5026 -62.3138 148° Southeast  Level Estimated
04:56AM 0.3935 -62.2463 148° Southeast  Level Estimated
04:57AM 0.2844 -62.1790 148° Southeast  Level Estimated
04:58AM 0.1753 -62.1115 148° Southeast  Level Estimated
04:59AM 0.0662 -62.0442 148° Southeast  Level Estimated
05:00AM -0.0428 -61.9767 148° Southeast  Level Estimated
05:01AM -0.1519 -61.9094 148° Southeast  Level Estimated
05:02AM -0.2610 -61.8419 148° Southeast  Level Estimated
05:03AM -0.3701 -61.7746 148° Southeast  Level Estimated
05:04AM -0.4792 -61.7071 148° Southeast  Level Estimated
05:05AM -0.5882 -61.6397 148° Southeast  Level Estimated
05:06AM -0.6973 -61.5723 148° Southeast  Level Estimated
05:07AM -0.8064 -61.5049 148° Southeast  Level Estimated
05:08AM -0.9155 -61.4375 148° Southeast  Level Estimated
05:09AM -1.0246 -61.3701 148° Southeast  Level Estimated
05:10AM -1.1336 -61.3026 148° Southeast  Level Estimated
05:11AM -1.2427 -61.2352 148° Southeast  Level Estimated
05:12AM -1.3518 -61.1678 148° Southeast  Level Estimated
05:13AM -1.4608 -61.1003 148° Southeast  Level Estimated
05:14AM -1.5699 -61.0329 148° Southeast  Level Estimated
05:15AM -1.6790 -60.9654 148° Southeast  Level Estimated
05:15AM -1.9920 -61.2040 148° Southeast 473 544 33,000  Level FlightAware
05:15AM -2.0370 -61.1490 129° Southeast 473 544 33,000  Level FlightAware
05:16AM -2.0790 -61.0970 129° Southeast 473 544 33,000  Level FlightAware
05:17AM -2.1680 -61.0320 144° Southeast 467 537 33,000  Level FlightAware
05:17AM -2.2270 -60.9940 147° Southeast 465 535 33,000  Level FlightAware
05:18AM -2.2880 -60.9480 143° Southeast 465 535 33,000  Level FlightAware
05:18AM -2.3480 -60.8970 140° Southeast 468 539 33,000  Level FlightAware
05:19AM -2.4040 -60.8500 140° Southeast 468 539 33,000  Level FlightAware
05:20AM -2.4630 -60.8000 140° Southeast 468 539 33,000  Level FlightAware
05:20AM -2.5230 -60.7490 140° Southeast 469 540 33,000  Level FlightAware
05:21AM -2.5890 -60.7050 146° Southeast 468 539 33,000  Level FlightAware
05:21AM -2.6480 -60.6710 150° Southeast 467 537 33,000  Level FlightAware
05:22AM -2.7180 -60.6320 151° Southeast 467 537 33,000  Level FlightAware
05:22AM -2.7850 -60.5940 150° Southeast 467 537 33,000  Level FlightAware
05:23AM -2.8530 -60.5550 150° Southeast 466 536 33,000  Level FlightAware
05:24AM -2.9160 -60.5190 150° Southeast 465 535 33,000  Level FlightAware
05:24AM -2.9820 -60.4820 151° Southeast 464 534 33,000  Level FlightAware
05:25AM -3.0490 -60.4450 151° Southeast 465 535 33,000  Level FlightAware
05:25AM -3.1100 -60.4100 150° Southeast 465 535 33,000  Level FlightAware
05:26AM -3.1780 -60.3720 151° Southeast 464 534 33,000  Level FlightAware
05:27AM -3.2450 -60.3360 152° Southeast 462 532 33,000  Level FlightAware
05:27AM -3.3130 -60.2980 151° Southeast 462 532 33,000  Level FlightAware
05:28AM -3.3710 -60.2660 151° Southeast 463 533 33,000  Level FlightAware
05:28AM -3.4350 -60.2290 150° Southeast 463 533 33,000  Level FlightAware
05:29AM -3.5020 -60.1770 142° Southeast 467 537 33,000  Level FlightAware
05:29AM -3.5560 -60.1320 140° Southeast 466 536 33,000  Level FlightAware
05:30AM -3.6150 -60.0840 141° Southeast 466 536 33,000  Level FlightAware
05:31AM -3.6750 -60.0360 141° Southeast 466 536 33,000  Level FlightAware
05:31AM -3.7350 -59.9860 140° Southeast 467 537 33,000  Level FlightAware
05:32AM -3.7940 -59.9350 139° Southeast 468 539 33,000  Level FlightAware
05:32AM -3.8520 -59.8760 135° Southeast 470 541 33,000  Level FlightAware
05:33AM -3.9050 -59.8120 130° Southeast 473 544 33,000  Level FlightAware
05:34AM -3.9420 -59.7410 118° Southeast 469 540 33,000  Level FlightAware
05:34AM -3.9720 -59.6710 113° Southeast 469 540 33,000  Level FlightAware
05:35AM -4.0020 -59.6030 114° Southeast 471 542 33,000  Level FlightAware
05:35AM -4.0330 -59.5400 116° Southeast 468 539 33,000  Level FlightAware
05:36AM -4.0790 -59.4780 127° Southeast 466 536 33,000  Level FlightAware
05:37AM -4.1400 -59.4290 141° Southeast 466 536 33,000  Level FlightAware
05:37AM -4.2020 -59.4000 155° Southeast 466 536 33,000  Level FlightAware
05:38AM -4.2670 -59.3750 159° South 466 536 33,000  Level FlightAware
05:38AM -4.3300 -59.3500 158° South 466 536 33,000  Level FlightAware
05:39AM -4.3940 -59.3260 159° South 466 536 33,000  Level FlightAware
05:40AM -4.4570 -59.3010 158° South 466 536 33,000  Level FlightAware
05:40AM -4.5190 -59.2780 160° South 466 536 33,000  Level FlightAware
05:41AM -4.5800 -59.2540 159° South 466 536 33,000  Level FlightAware
05:41AM -4.6230 -59.2370 158° South 466 536 33,000  Level FlightAware
05:42AM -4.7120 -59.2030 159° South 466 536 33,000  Level FlightAware
05:43AM -4.7730 -59.1800 159° South 466 536 33,000  Level FlightAware
05:43AM -4.8350 -59.1560 159° South 466 536 33,000  Level FlightAware
05:44AM -4.8970 -59.1320 159° South 466 536 33,000  Level FlightAware
05:45AM -4.9580 -59.1080 159° South 466 536 33,000  Level FlightAware
05:45AM -5.0200 -59.0850 160° South 466 536 33,000  Level FlightAware
05:46AM -5.0810 -59.0610 159° South 466 536 33,000  Level FlightAware
05:46AM -5.1430 -59.0370 159° South 466 536 33,000  Level FlightAware
05:47AM -5.2050 -59.0130 159° South 466 536 33,000  Level FlightAware
05:49AM -5.3768 -58.9038 148° Southeast  Level Estimated
05:50AM -5.4841 -58.8354 148° Southeast  Level Estimated
05:51AM -5.5915 -58.7671 148° Southeast  Level Estimated
05:52AM -5.6988 -58.6988 148° Southeast  Level Estimated
05:53AM -5.8062 -58.6304 148° Southeast  Level Estimated
05:54AM -5.9135 -58.5620 148° Southeast  Level Estimated
05:55AM -6.0208 -58.4935 148° Southeast  Level Estimated
05:56AM -6.1281 -58.4251 148° Southeast  Level Estimated
05:57AM -6.2354 -58.3566 148° Southeast  Level Estimated
05:58AM -6.3427 -58.2881 148° Southeast  Level Estimated
05:59AM -6.4500 -58.2195 148° Southeast  Level Estimated
06:00AM -6.5573 -58.1509 148° Southeast  Level Estimated
06:01AM -6.6646 -58.0823 148° Southeast  Level Estimated
06:02AM -6.7718 -58.0137 148° Southeast  Level Estimated
06:03AM -6.8791 -57.9450 148° Southeast  Level Estimated
06:04AM -6.9863 -57.8763 148° Southeast  Level Estimated
06:05AM -7.0935 -57.8076 148° Southeast  Level Estimated
06:06AM -7.2008 -57.7388 148° Southeast  Level Estimated
06:07AM -7.3080 -57.6701 148° Southeast  Level Estimated
06:08AM -7.4152 -57.6012 148° Southeast  Level Estimated
06:09AM -7.5220 -57.5326 148° Southeast  Level Estimated
06:10AM -7.6288 -57.4640 147° Southeast  Level Estimated
06:11AM -7.7356 -57.3953 147° Southeast  Level Estimated
06:12AM -7.8423 -57.3266 147° Southeast  Level Estimated
06:13AM -7.9491 -57.2578 147° Southeast  Level Estimated
06:14AM -8.0558 -57.1890 147° Southeast  Level Estimated
06:15AM -8.1626 -57.1202 147° Southeast  Level Estimated
06:16AM -8.2693 -57.0513 147° Southeast  Level Estimated
06:17AM -8.3760 -56.9824 147° Southeast  Level Estimated
06:18AM -8.4827 -56.9135 147° Southeast  Level Estimated
06:19AM -8.5894 -56.8445 147° Southeast  Level Estimated
06:20AM -8.6961 -56.7755 147° Southeast  Level Estimated
06:21AM -8.8028 -56.7065 147° Southeast  Level Estimated
06:22AM -8.9094 -56.6374 147° Southeast  Level Estimated
06:23AM -9.0161 -56.5682 147° Southeast  Level Estimated
06:24AM -9.1227 -56.4991 147° Southeast  Level Estimated
06:25AM -9.2293 -56.4299 147° Southeast  Level Estimated
06:26AM -9.3359 -56.3606 147° Southeast  Level Estimated
06:27AM -9.4425 -56.2913 147° Southeast  Level Estimated
06:28AM -9.5491 -56.2220 147° Southeast  Level Estimated
06:29AM -9.6554 -56.1527 147° Southeast  Level Estimated
06:30AM -9.7618 -56.0834 147° Southeast  Level Estimated
06:31AM -9.8682 -56.0140 147° Southeast  Level Estimated
06:32AM -9.9745 -55.9446 147° Southeast  Level Estimated
06:33AM -10.0808 -55.8752 147° Southeast  Level Estimated
06:34AM -10.1871 -55.8057 147° Southeast  Level Estimated
06:35AM -10.2934 -55.7362 147° Southeast  Level Estimated
06:36AM -10.3997 -55.6666 147° Southeast  Level Estimated
06:37AM -10.5059 -55.5970 147° Southeast  Level Estimated
06:38AM -10.6122 -55.5273 147° Southeast  Level Estimated
06:39AM -10.7184 -55.4576 147° Southeast  Level Estimated
06:40AM -10.8246 -55.3878 147° Southeast  Level Estimated
06:41AM -10.9308 -55.3180 147° Southeast  Level Estimated
06:42AM -11.0370 -55.2481 147° Southeast  Level Estimated
06:43AM -11.1432 -55.1782 147° Southeast  Level Estimated
06:44AM -11.2493 -55.1082 147° Southeast  Level Estimated
06:45AM -11.3556 -55.0381 147° Southeast  Level Estimated
06:46AM -11.4619 -54.9679 147° Southeast  Level Estimated
06:47AM -11.5682 -54.8976 147° Southeast  Level Estimated
06:48AM -11.6745 -54.8273 147° Southeast  Level Estimated
06:49AM -11.7807 -54.7569 147° Southeast  Level Estimated
06:50AM -11.8870 -54.6865 147° Southeast  Level Estimated
06:51AM -11.9932 -54.6160 147° Southeast  Level Estimated
06:52AM -12.0994 -54.5455 147° Southeast  Level Estimated
06:53AM -12.2056 -54.4749 147° Southeast  Level Estimated
06:54AM -12.3117 -54.4043 147° Southeast  Level Estimated
06:55AM -12.4179 -54.3336 147° Southeast  Level Estimated
06:56AM -12.5240 -54.2628 147° Southeast  Level Estimated
06:57AM -12.6301 -54.1920 147° Southeast  Level Estimated
06:58AM -12.7362 -54.1212 147° Southeast  Level Estimated
06:59AM -12.8423 -54.0502 147° Southeast  Level Estimated
07:00AM -12.9483 -53.9792 147° Southeast  Level Estimated
07:01AM -13.0543 -53.9082 147° Southeast  Level Estimated
07:02AM -13.1604 -53.8371 147° Southeast  Level Estimated
07:03AM -13.2663 -53.7659 147° Southeast  Level Estimated
07:04AM -13.3723 -53.6947 147° Southeast  Level Estimated
07:05AM -13.4783 -53.6234 147° Southeast  Level Estimated
07:06AM -13.5842 -53.5520 147° Southeast  Level Estimated
07:07AM -13.6901 -53.4806 147° Southeast  Level Estimated
07:08AM -13.7960 -53.4091 147° Southeast  Level Estimated
07:09AM -13.9019 -53.3375 147° Southeast  Level Estimated
07:10AM -14.0077 -53.2659 147° Southeast  Level Estimated
07:11AM -14.1136 -53.1942 147° Southeast  Level Estimated
07:12AM -14.2194 -53.1225 147° Southeast  Level Estimated
07:13AM -14.3250 -53.0508 147° Southeast  Level Estimated
07:14AM -14.4305 -52.9790 147° Southeast  Level Estimated
07:15AM -14.5361 -52.9072 147° Southeast  Level Estimated
07:16AM -14.6416 -52.8353 147° Southeast  Level Estimated
07:17AM -14.7472 -52.7633 147° Southeast  Level Estimated
07:18AM -14.8526 -52.6913 147° Southeast  Level Estimated
07:19AM -14.9581 -52.6192 147° Southeast  Level Estimated
07:20AM -15.0636 -52.5470 147° Southeast  Level Estimated
07:21AM -15.1690 -52.4747 147° Southeast  Level Estimated
07:22AM -15.2744 -52.4024 147° Southeast  Level Estimated
07:23AM -15.3798 -52.3300 146° Southeast  Level Estimated
07:24AM -15.4847 -52.2578 146° Southeast  Level Estimated
07:25AM -15.5897 -52.1855 146° Southeast  Level Estimated
07:26AM -15.6946 -52.1132 146° Southeast  Level Estimated
07:27AM -15.7996 -52.0407 146° Southeast  Level Estimated
07:28AM -15.9044 -51.9682 146° Southeast  Level Estimated
07:29AM -16.0093 -51.8957 146° Southeast  Level Estimated
07:30AM -16.1141 -51.8230 146° Southeast  Level Estimated
07:31AM -16.2190 -51.7503 146° Southeast  Level Estimated
07:32AM -16.3237 -51.6774 146° Southeast  Level Estimated
07:33AM -16.4285 -51.6046 146° Southeast  Level Estimated
07:34AM -16.5332 -51.5316 146° Southeast  Level Estimated
07:35AM -16.6380 -51.4585 146° Southeast  Level Estimated
07:36AM -16.7426 -51.3854 146° Southeast  Level Estimated
07:37AM -16.8473 -51.3122 146° Southeast  Level Estimated
07:38AM -16.9519 -51.2389 146° Southeast  Level Estimated
07:39AM -17.0565 -51.1655 146° Southeast  Level Estimated
07:40AM -17.1611 -51.0921 146° Southeast  Level Estimated
07:41AM -17.2657 -51.0185 146° Southeast  Level Estimated
07:42AM -17.3702 -50.9449 146° Southeast  Level Estimated
07:43AM -17.4747 -50.8712 146° Southeast  Level Estimated
07:44AM -17.5790 -50.7976 146° Southeast  Level Estimated
07:45AM -17.6833 -50.7238 146° Southeast  Level Estimated
07:46AM -17.7875 -50.6500 146° Southeast  Level Estimated
07:47AM -17.8917 -50.5760 146° Southeast  Level Estimated
07:48AM -17.9959 -50.5020 146° Southeast  Level Estimated
07:49AM -18.1001 -50.4280 146° Southeast  Level Estimated
07:50AM -18.2042 -50.3538 146° Southeast  Level Estimated
07:50AM -18.6340 -50.1740 146° Southeast 458 527 35,000  Level FlightAware
07:51AM -18.3083 -50.2795 146° Southeast  Level Estimated
07:51AM -18.6960 -50.1230 142° Southeast 458 527 35,000  Level FlightAware
07:51AM -18.7560 -50.0750 143° Southeast 458 527 35,000  Level FlightAware
07:52AM -18.8100 -50.0310 142° Southeast 458 527 35,000  Level FlightAware
07:52AM -18.8730 -49.9800 143° Southeast 459 528 35,000  Level FlightAware
07:53AM -18.9330 -49.9320 143° Southeast 459 528 35,000  Level FlightAware
07:54AM -18.9880 -49.8870 142° Southeast 459 528 35,000  Level FlightAware
07:54AM -19.0470 -49.8390 142° Southeast 460 529 35,000  Level FlightAware
07:55AM -19.1060 -49.7910 142° Southeast 461 531 35,000  Level FlightAware
07:55AM -19.1700 -49.7380 142° Southeast 461 531 35,000  Level FlightAware
07:56AM -19.2240 -49.6930 142° Southeast 463 533 35,000  Level FlightAware
07:57AM -19.2840 -49.6430 142° Southeast 463 533 35,000  Level FlightAware
07:57AM -19.3420 -49.5940 141° Southeast 463 533 35,000  Level FlightAware
07:58AM -19.4050 -49.5400 141° Southeast 464 534 35,000  Level FlightAware
07:58AM -19.4590 -49.4950 142° Southeast 466 536 35,000  Level FlightAware
07:59AM -19.5180 -49.4450 141° Southeast 466 536 35,000  Level FlightAware
07:59AM -19.5730 -49.3990 142° Southeast 466 536 35,000  Level FlightAware
08:00AM -19.6280 -49.3520 141° Southeast 466 536 35,000  Level FlightAware
08:01AM -19.7050 -49.2880 142° Southeast 467 537 35,000  Level FlightAware
08:01AM -19.7680 -49.2350 142° Southeast 466 536 35,000  Level FlightAware
08:02AM -19.8220 -49.1890 141° Southeast 466 536 35,000  Level FlightAware
08:02AM -19.8660 -49.1510 141° Southeast 466 536 35,000  Level FlightAware
08:03AM -19.9470 -49.0830 142° Southeast 467 537 35,000  Level FlightAware
08:04AM -20.0060 -49.0330 141° Southeast 468 539 35,000  Level FlightAware
08:04AM -20.0660 -48.9820 141° Southeast 468 539 35,000  Level FlightAware
08:05AM -20.1260 -48.9310 141° Southeast 468 539 35,000  Level FlightAware
08:05AM -20.1870 -48.8790 141° Southeast 468 539 35,000  Level FlightAware
08:06AM -20.2430 -48.8310 141° Southeast 467 537 35,000  Level FlightAware
08:07AM -20.3030 -48.7800 141° Southeast 466 536 35,000  Level FlightAware
08:07AM -20.3690 -48.7380 149° Southeast 463 533 35,000  Level FlightAware
08:08AM -20.4340 -48.7030 153° Southeast 463 533 35,000  Level FlightAware
08:08AM -20.5040 -48.6660 154° Southeast 465 535 35,000  Level FlightAware
08:09AM -20.5720 -48.6300 154° Southeast 465 535 35,000  Level FlightAware
08:10AM -20.6390 -48.5950 154° Southeast 464 534 35,000  Level FlightAware
08:10AM -20.7090 -48.5570 153° Southeast 465 535 35,000  Level FlightAware
08:11AM -20.7720 -48.5230 153° Southeast 466 536 35,000  Level FlightAware
08:11AM -20.8390 -48.4870 153° Southeast 467 537 35,000  Level FlightAware
08:12AM -20.9250 -48.4410 153° Southeast 467 537 35,000  Level FlightAware
08:13AM -20.9940 -48.4040 153° Southeast 466 536 35,000  Level FlightAware
08:13AM -21.0680 -48.3640 153° Southeast 465 535 35,000  Level FlightAware
08:14AM -21.1270 -48.3200 145° Southeast 471 542 35,000  Level FlightAware
08:14AM -21.1860 -48.2540 134° Southeast 475 547 35,000  Level FlightAware
08:15AM -21.2400 -48.1930 134° Southeast 474 545 35,000  Level FlightAware
08:16AM -21.2880 -48.1390 134° Southeast 475 547 35,000  Level FlightAware
08:16AM -21.3430 -48.0760 133° Southeast 476 548 35,000  Level FlightAware
08:17AM -21.3870 -48.0260 133° Southeast 476 548 35,000  Level FlightAware
08:17AM -21.4400 -47.9660 134° Southeast 476 548 35,000  Level FlightAware
08:18AM -21.4910 -47.9090 134° Southeast 476 548 35,000  Level FlightAware
08:18AM -21.5450 -47.8480 134° Southeast 476 548 35,000  Level FlightAware
08:19AM -21.6030 -47.7810 133° Southeast 477 549 35,000  Level FlightAware
08:20AM -21.6510 -47.7270 134° Southeast 477 549 35,000  Level FlightAware
08:20AM -21.7040 -47.6670 134° Southeast 476 548 35,000  Level FlightAware
08:21AM -21.7590 -47.6040 133° Southeast 475 547 35,000 -360 Level FlightAware
08:21AM -21.8090 -47.5470 133° Southeast 470 541 34,600 -1,200 Descending FlightAware
08:22AM -21.8660 -47.4850 135° Southeast 470 541 33,600 -1,680 Descending FlightAware
08:22AM -21.9230 -47.4410 144° Southeast 465 535 32,700 -1,980 Descending FlightAware
08:23AM -21.9930 -47.4030 153° Southeast 455 524 31,400 -2,220 Descending FlightAware
08:24AM -22.0590 -47.3690 154° Southeast 449 517 30,100 -2,160 Descending FlightAware
08:24AM -22.1200 -47.3380 155° Southeast 443 510 29,000 -2,040 Descending FlightAware
08:25AM -22.1840 -47.3040 154° Southeast 436 502 27,800 -2,040 Descending FlightAware
08:25AM -22.2420 -47.2740 154° Southeast 430 495 26,700 -2,040 Descending FlightAware
08:26AM -22.3130 -47.2360 154° Southeast 425 489 25,400 -2,100 Descending FlightAware
08:27AM -22.3750 -47.2040 154° Southeast 420 483 24,200 -2,040 Descending FlightAware
08:27AM -22.4400 -47.1700 154° Southeast 415 478 23,000 -1,920 Descending FlightAware
08:28AM -22.4960 -47.1400 154° Southeast 411 473 22,000 -1,980 Descending FlightAware
08:28AM -22.5560 -47.1090 154° Southeast 408 470 20,800 -2,220 Descending FlightAware
08:29AM -22.6180 -47.0800 157° South 411 473 19,400 -2,160 Descending FlightAware
08:29AM -22.6760 -47.0560 159° South 407 468 18,400 -1,920 Descending FlightAware
08:30AM -22.7310 -47.0330 159° South 402 463 17,400 -1,860 Descending FlightAware
08:31AM -22.8010 -47.0040 159° South 394 453 16,200 -1,860 Descending FlightAware
08:31AM -22.8620 -46.9780 159° South 388 447 15,100 -1,560 Descending FlightAware
08:32AM -22.9170 -46.9550 159° South 353 406 14,400 -1,560 Descending FlightAware
08:32AM -22.9680 -46.9340 159° South 318 366 13,300 -1,500 Descending FlightAware
08:33AM -23.0110 -46.9160 159° South 279 321 12,700 -1,740 Descending FlightAware
08:33AM -23.0390 -46.9020 155° Southeast 288 331 11,700 -2,100 Descending FlightAware
08:34AM -23.0590 -46.8850 142° Southeast 284 327 11,200 -1,140 Descending FlightAware
08:34AM -23.0850 -46.8450 125° Southeast 272 313 10,700 -960 Descending FlightAware
08:35AM -23.0950 -46.7980 103° East 264 304 10,100 -780 Descending FlightAware
08:35AM -23.0980 -46.7700 97° East 261 300 10,000 -780 Descending FlightAware
08:36AM -23.1010 -46.7440 97° East 259 298 9,600 -1,140 Descending FlightAware
08:36AM -23.1030 -46.7280 98° East 257 296 9,400 -1,200 Descending FlightAware
08:36AM -23.1070 -46.6980 98° East 254 292 8,900 -1,200 Descending FlightAware
08:37AM -23.1140 -46.6730 107° East 250 288 8,500 -1,080 Descending FlightAware
08:37AM -23.1210 -46.6580 117° Southeast 248 285 8,300 -1,080 Descending FlightAware
08:37AM -23.1250 -46.6540 137° Southeast 246 283 8,200 -1,320 Descending FlightAware
08:37AM -23.1350 -46.6480 151° Southeast 247 284 8,000 -720 Descending FlightAware
08:37AM -23.1430 -46.6460 167° South 252 290 8,000 -540 Level FlightAware
08:38AM -23.1740 -46.6570 198° South 256 295 7,700 -720 Descending FlightAware
08:38AM -23.1790 -46.6640 232° Southwest 258 297 7,600 -1,500 Descending FlightAware
08:38AM -23.1820 -46.6710 245° Southwest 257 296 7,400 -1,920 Descending FlightAware
08:38AM -23.1880 -46.6880 249° West 250 288 6,900 -1,980 Descending FlightAware
08:38AM -23.1950 -46.7090 250° West 237 273 6,300 -1,920 Descending FlightAware
08:39AM -23.2000 -46.7240 250° West 227 261 5,900 -1,440 Descending FlightAware
08:39AM -23.2060 -46.7410 249° West 222 255 5,600 -780 Descending FlightAware
08:39AM -23.2130 -46.7480 223° Southwest 224 258 5,600  Level FlightAware
08:39AM -23.2150 -46.7490 205° Southwest 220 253 5,600  Level FlightAware
08:39AM -23.2220 -46.7530 208° Southwest 215 247 5,600  Level FlightAware
08:40AM -23.2480 -46.7590 192° South 213 245 5,600  Level FlightAware
08:40AM -23.2770 -46.7660 193° South 213 245 5,600  Level FlightAware
08:40AM -23.2850 -46.7670 187° South 214 246 5,600  Level FlightAware
08:41AM -23.3060 -46.7620 168° South 208 239 5,600  Level FlightAware
08:41AM -23.3200 -46.7570 162° South 208 239 5,600  Level FlightAware
08:41AM -23.3450 -46.7490 164° South 209 241 5,600  Level FlightAware
08:42AM -23.3600 -46.7440 163° South 209 241 5,600  Level FlightAware
08:42AM -23.3780 -46.7380 163° South 210 242 5,600 -120 Level FlightAware
08:43AM -23.4120 -46.7260 162° South 208 239 5,500 -360 Descending FlightAware
08:43AM -23.4350 -46.7180 162° South 205 236 5,200 -600 Descending FlightAware
08:43AM -23.4490 -46.7140 165° South 198 228 5,100 -180 Descending FlightAware
08:44AM -23.4690 -46.7020 151° Southeast 187 215 5,100  Level FlightAware
08:44AM -23.4720 -46.6940 112° Southeast 173 199 5,100  Level FlightAware
08:44AM -23.4800 -46.6750 115° Southeast 167 192 5,100  Level FlightAware
08:45AM -23.4830 -46.6610 103° East 166 191 5,100 -480 Level FlightAware
08:45AM -23.4790 -46.6360 80° East 167 192 4,800 -960 Descending FlightAware
08:45AM -23.4750 -46.6220 73° East 161 185 4,500 -840 Descending FlightAware
08:46AM -23.4710 -46.6070 74° East 161 185 4,300 -780 Descending FlightAware
08:46AM -23.4670 -46.5910 75° East 161 185 4,000 -960 Descending FlightAware
08:46AM -23.4640 -46.5820 70° East 160 184 3,800 -900 Descending FlightAware
08:47AM -23.4600 -46.5640 76° East 155 178 3,500 -840 Descending FlightAware
08:47AM -23.4560 -46.5490 74° East 150 173 3,200 -840 Descending FlightAware
08:47AM -23.4520 -46.5360 71° East 147 169 3,000 -660 Descending FlightAware
08:47AM -23.4490 -46.5240 75° East 150 173 2,800 -660 Descending FlightAware
08:48AM -23.4460 -46.5140 72° East 154 177 2,600 -900 Descending FlightAware
08:48AM -23.4390 -46.4880 74° East 155 178 2,100 -1,020 Descending FlightAware
08:49AM -23.4350 -46.4740 73° East 120 138 -6,660 Descending FlightAware
08:49AM -23.4340 -46.4690 78° East 78 90  Level FlightAware
08:49AM -23.4310 -46.4600 70° East 78 90  Level FlightAware